sensor_id;sensor_type;location;lat;lon;timestamp;pressure;altitude;pressure_sealevel;temperature;humidity
78582;BME280;67878;46.242;5.974;2024-01-10T00:02:19;95817.22;;;18.80;41.11
78582;BME280;67878;46.242;5.974;2024-01-10T00:04:45;95819.16;;;18.78;40.68
78582;BME280;67878;46.242;5.974;2024-01-10T00:07:10;95824.25;;;18.79;40.74
78582;BME280;67878;46.242;5.974;2024-01-10T00:09:35;95809.53;;;18.78;40.90
78582;BME280;67878;46.242;5.974;2024-01-10T00:12:01;95813.94;;;18.78;40.93
78582;BME280;67878;46.242;5.974;2024-01-10T00:14:26;95813.94;;;18.78;40.86
78582;BME280;67878;46.242;5.974;2024-01-10T00:16:52;95807.06;;;18.77;40.87
78582;BME280;67878;46.242;5.974;2024-01-10T00:19:17;95811.31;;;18.78;40.90
78582;BME280;67878;46.242;5.974;2024-01-10T00:21:43;95809.69;;;18.77;41.00
78582;BME280;67878;46.242;5.974;2024-01-10T00:24:08;95809.84;;;18.75;40.69
78582;BME280;67878;46.242;5.974;2024-01-10T00:26:33;95803.75;;;18.75;40.92
78582;BME280;67878;46.242;5.974;2024-01-10T00:28:59;95811.59;;;18.75;40.98
78582;BME280;67878;46.242;5.974;2024-01-10T00:31:24;95816.97;;;18.73;41.00
78582;BME280;67878;46.242;5.974;2024-01-10T00:33:50;95803.88;;;18.73;41.01
78582;BME280;67878;46.242;5.974;2024-01-10T00:36:15;95794.66;;;18.69;41.11
78582;BME280;67878;46.242;5.974;2024-01-10T00:38:41;95790.81;;;18.73;41.31
78582;BME280;67878;46.242;5.974;2024-01-10T00:41:06;95781.47;;;18.71;41.30
78582;BME280;67878;46.242;5.974;2024-01-10T00:43:32;95787.50;;;18.71;40.94
78582;BME280;67878;46.242;5.974;2024-01-10T00:45:57;95791.91;;;18.71;40.87
78582;BME280;67878;46.242;5.974;2024-01-10T00:48:23;95777.19;;;18.70;41.22
78582;BME280;67878;46.242;5.974;2024-01-10T00:50:48;95790.28;;;18.70;41.13
78582;BME280;67878;46.242;5.974;2024-01-10T00:53:14;95789.31;;;18.71;41.20
78582;BME280;67878;46.242;5.974;2024-01-10T00:55:39;95789.44;;;18.69;40.97
78582;BME280;67878;46.242;5.974;2024-01-10T00:58:04;95786.81;;;18.69;40.90
78582;BME280;67878;46.242;5.974;2024-01-10T01:00:31;95781.75;;;18.68;40.84
78582;BME280;67878;46.242;5.974;2024-01-10T01:02:57;95785.47;;;18.65;40.92
78582;BME280;67878;46.242;5.974;2024-01-10T01:05:22;95783.56;;;18.67;40.95
78582;BME280;67878;46.242;5.974;2024-01-10T01:07:48;95787.94;;;18.67;40.91
78582;BME280;67878;46.242;5.974;2024-01-10T01:10:13;95790.53;;;18.67;40.83
78582;BME280;67878;46.242;5.974;2024-01-10T01:12:39;95794.16;;;18.66;40.93
78582;BME280;67878;46.242;5.974;2024-01-10T01:15:05;95792.50;;;18.65;40.75
78582;BME280;67878;46.242;5.974;2024-01-10T01:17:31;95785.59;;;18.64;40.71
78582;BME280;67878;46.242;5.974;2024-01-10T01:19:56;95792.81;;;18.62;40.68
78582;BME280;67878;46.242;5.974;2024-01-10T01:22:21;95797.19;;;18.61;40.71
78582;BME280;67878;46.242;5.974;2024-01-10T01:24:47;95798.97;;;18.60;40.53
78582;BME280;67878;46.242;5.974;2024-01-10T01:27:13;95791.13;;;18.60;40.70
78582;BME280;67878;46.242;5.974;2024-01-10T01:29:38;95804.09;;;18.62;40.78
78582;BME280;67878;46.242;5.974;2024-01-10T01:32:03;95813.72;;;18.62;40.55
78582;BME280;67878;46.242;5.974;2024-01-10T01:34:29;95807.81;;;18.59;40.70
78582;BME280;67878;46.242;5.974;2024-01-10T01:36:55;95814.69;;;18.60;40.69
78582;BME280;67878;46.242;5.974;2024-01-10T01:39:20;95817.59;;;18.57;40.77
78582;BME280;67878;46.242;5.974;2024-01-10T01:41:46;95810.56;;;18.58;40.94
78582;BME280;67878;46.242;5.974;2024-01-10T01:44:11;95814.84;;;18.59;40.82
78582;BME280;67878;46.242;5.974;2024-01-10T01:46:36;95807.81;;;18.59;40.98
78582;BME280;67878;46.242;5.974;2024-01-10T01:49:03;95818.41;;;18.58;40.64
78582;BME280;67878;46.242;5.974;2024-01-10T01:51:29;95809.72;;;18.57;40.86
78582;BME280;67878;46.242;5.974;2024-01-10T01:53:57;95811.53;;;18.57;41.22
78582;BME280;67878;46.242;5.974;2024-01-10T01:56:23;95812.63;;;18.54;40.60
78582;BME280;67878;46.242;5.974;2024-01-10T01:58:51;95809.72;;;18.57;40.92
78582;BME280;67878;46.242;5.974;2024-01-10T02:01:18;95821.00;;;18.58;40.97
78582;BME280;67878;46.242;5.974;2024-01-10T02:03:47;95809.91;;;18.56;40.81
78582;BME280;67878;46.242;5.974;2024-01-10T02:06:12;95820.34;;;18.56;40.73
78582;BME280;67878;46.242;5.974;2024-01-10T02:08:38;95807.41;;;18.54;40.94
78582;BME280;67878;46.242;5.974;2024-01-10T02:11:03;95810.84;;;18.55;40.85
78582;BME280;67878;46.242;5.974;2024-01-10T02:13:29;95809.34;;;18.52;41.01
78582;BME280;67878;46.242;5.974;2024-01-10T02:15:57;95818.03;;;18.53;40.91
78582;BME280;67878;46.242;5.974;2024-01-10T02:18:22;95818.84;;;18.53;40.64
78582;BME280;67878;46.242;5.974;2024-01-10T02:20:49;95807.56;;;18.53;40.75
78582;BME280;67878;46.242;5.974;2024-01-10T02:23:14;95823.25;;;18.53;40.55
78582;BME280;67878;46.242;5.974;2024-01-10T02:25:40;95803.44;;;18.50;40.77
78582;BME280;67878;46.242;5.974;2024-01-10T02:28:06;95801.66;;;18.51;40.59
78582;BME280;67878;46.242;5.974;2024-01-10T02:30:33;95815.84;;;18.48;40.62
78582;BME280;67878;46.242;5.974;2024-01-10T02:32:58;95800.84;;;18.50;40.70
78582;BME280;67878;46.242;5.974;2024-01-10T02:35:24;95806.06;;;18.50;40.43
78582;BME280;67878;46.242;5.974;2024-01-10T02:37:49;95812.94;;;18.51;40.59
78582;BME280;67878;46.242;5.974;2024-01-10T02:40:18;95794.63;;;18.51;40.79
78582;BME280;67878;46.242;5.974;2024-01-10T02:42:43;95800.28;;;18.47;40.51
78582;BME280;67878;46.242;5.974;2024-01-10T02:45:09;95795.59;;;18.50;40.51
78582;BME280;67878;46.242;5.974;2024-01-10T02:47:35;95793.13;;;18.49;40.40
78582;BME280;67878;46.242;5.974;2024-01-10T02:50:02;95790.66;;;18.47;40.57
78582;BME280;67878;46.242;5.974;2024-01-10T02:52:28;95789.69;;;18.48;40.43
78582;BME280;67878;46.242;5.974;2024-01-10T02:54:53;95797.53;;;18.48;40.67
78582;BME280;67878;46.242;5.974;2024-01-10T02:57:18;95791.47;;;18.48;40.49
78582;BME280;67878;46.242;5.974;2024-01-10T02:59:44;95789.69;;;18.48;40.41
78582;BME280;67878;46.242;5.974;2024-01-10T03:02:09;95781.16;;;18.46;40.34
78582;BME280;67878;46.242;5.974;2024-01-10T03:04:35;95782.25;;;18.44;40.22
78582;BME280;67878;46.242;5.974;2024-01-10T03:07:00;95785.44;;;18.47;40.36
78582;BME280;67878;46.242;5.974;2024-01-10T03:09:26;95775.91;;;18.46;40.45
78582;BME280;67878;46.242;5.974;2024-01-10T03:11:51;95782.94;;;18.46;40.49
78582;BME280;67878;46.242;5.974;2024-01-10T03:14:17;95775.09;;;18.46;40.42
78582;BME280;67878;46.242;5.974;2024-01-10T03:16:42;95777.84;;;18.44;40.39
78582;BME280;67878;46.242;5.974;2024-01-10T03:19:07;95778.53;;;18.46;40.79
78582;BME280;67878;46.242;5.974;2024-01-10T03:21:33;95766.44;;;18.45;40.46
78582;BME280;67878;46.242;5.974;2024-01-10T03:23:59;95770.56;;;18.48;40.46
78582;BME280;67878;46.242;5.974;2024-01-10T03:26:26;95772.34;;;18.47;40.73
78582;BME280;67878;46.242;5.974;2024-01-10T03:28:52;95767.94;;;18.48;40.34
78582;BME280;67878;46.242;5.974;2024-01-10T03:31:17;95781.03;;;18.48;40.34
78582;BME280;67878;46.242;5.974;2024-01-10T03:33:43;95774.00;;;18.48;40.40
78582;BME280;67878;46.242;5.974;2024-01-10T03:36:11;95778.13;;;18.51;40.97
78582;BME280;67878;46.242;5.974;2024-01-10T03:38:37;95779.63;;;18.53;40.71
78582;BME280;67878;46.242;5.974;2024-01-10T03:41:02;95782.38;;;18.52;40.48
78582;BME280;67878;46.242;5.974;2024-01-10T03:43:28;95776.31;;;18.51;40.41
78582;BME280;67878;46.242;5.974;2024-01-10T03:45:53;95771.09;;;18.51;40.28
78582;BME280;67878;46.242;5.974;2024-01-10T03:48:19;95766.66;;;18.52;40.38
78582;BME280;67878;46.242;5.974;2024-01-10T03:50:44;95767.34;;;18.54;40.44
78582;BME280;67878;46.242;5.974;2024-01-10T03:53:10;95769.97;;;18.54;40.40
78582;BME280;67878;46.242;5.974;2024-01-10T03:55:35;95767.34;;;18.54;40.54
78582;BME280;67878;46.242;5.974;2024-01-10T03:58:00;95769.97;;;18.54;40.58
78582;BME280;67878;46.242;5.974;2024-01-10T04:00:26;95776.03;;;18.54;40.53
78582;BME280;67878;46.242;5.974;2024-01-10T04:02:52;95775.03;;;18.55;40.52
78582;BME280;67878;46.242;5.974;2024-01-10T04:05:18;95771.47;;;18.56;40.37
78582;BME280;67878;46.242;5.974;2024-01-10T04:07:44;95780.97;;;18.57;40.83
78582;BME280;67878;46.242;5.974;2024-01-10T04:10:10;95779.31;;;18.56;40.41
78582;BME280;67878;46.242;5.974;2024-01-10T04:12:36;95779.31;;;18.56;40.12
78582;BME280;67878;46.242;5.974;2024-01-10T04:15:06;95774.09;;;18.56;40.13
78582;BME280;67878;46.242;5.974;2024-01-10T04:17:32;95775.91;;;18.56;40.26
78582;BME280;67878;46.242;5.974;2024-01-10T04:19:58;95774.38;;;18.53;40.14
78582;BME280;67878;46.242;5.974;2024-01-10T04:22:24;95769.97;;;18.54;40.27
78582;BME280;67878;46.242;5.974;2024-01-10T04:24:49;95777.00;;;18.53;40.18
78582;BME280;67878;46.242;5.974;2024-01-10T04:27:15;95782.38;;;18.52;40.17
78582;BME280;67878;46.242;5.974;2024-01-10T04:29:40;95777.94;;;18.52;39.94
78582;BME280;67878;46.242;5.974;2024-01-10T04:32:06;95780.72;;;18.51;40.14
78582;BME280;67878;46.242;5.974;2024-01-10T04:34:31;95776.44;;;18.50;39.79
78582;BME280;67878;46.242;5.974;2024-01-10T04:36:57;95777.28;;;18.50;40.00
78582;BME280;67878;46.242;5.974;2024-01-10T04:39:22;95779.91;;;18.50;39.83
78582;BME280;67878;46.242;5.974;2024-01-10T04:41:48;95778.25;;;18.49;39.76
78582;BME280;67878;46.242;5.974;2024-01-10T04:44:14;95769.75;;;18.47;39.86
78582;BME280;67878;46.242;5.974;2024-01-10T04:46:39;95771.22;;;18.50;39.81
78582;BME280;67878;46.242;5.974;2024-01-10T04:49:06;95764.63;;;18.46;39.85
78582;BME280;67878;46.242;5.974;2024-01-10T04:51:32;95759.94;;;18.49;39.75
78582;BME280;67878;46.242;5.974;2024-01-10T04:53:58;95767.94;;;18.48;39.55
78582;BME280;67878;46.242;5.974;2024-01-10T04:56:23;95770.41;;;18.49;39.72
78582;BME280;67878;46.242;5.974;2024-01-10T04:58:48;95761.91;;;18.47;39.54
78582;BME280;67878;46.242;5.974;2024-01-10T05:01:14;95765.34;;;18.48;39.74
78582;BME280;67878;46.242;5.974;2024-01-10T05:03:40;95776.59;;;18.48;39.36
78582;BME280;67878;46.242;5.974;2024-01-10T05:06:05;95781.69;;;18.50;39.53
78582;BME280;67878;46.242;5.974;2024-01-10T05:08:31;95767.78;;;18.49;39.52
78582;BME280;67878;46.242;5.974;2024-01-10T05:10:56;95763.53;;;18.48;39.46
78582;BME280;67878;46.242;5.974;2024-01-10T05:13:22;95771.22;;;18.50;39.55
78582;BME280;67878;46.242;5.974;2024-01-10T05:15:47;95770.56;;;18.48;39.55
78582;BME280;67878;46.242;5.974;2024-01-10T05:18:12;95773.84;;;18.50;39.33
78582;BME280;67878;46.242;5.974;2024-01-10T05:20:38;95762.56;;;18.49;39.35
78582;BME280;67878;46.242;5.974;2024-01-10T05:23:03;95766.16;;;18.48;39.55
78582;BME280;67878;46.242;5.974;2024-01-10T05:25:29;95766.97;;;18.49;39.52
78582;BME280;67878;46.242;5.974;2024-01-10T05:27:55;95775.63;;;18.49;39.22
78582;BME280;67878;46.242;5.974;2024-01-10T05:30:20;95780.72;;;18.51;39.33
78582;BME280;67878;46.242;5.974;2024-01-10T05:32:45;95773.00;;;18.49;39.34
78582;BME280;67878;46.242;5.974;2024-01-10T05:35:11;95781.56;;;18.51;39.28
78582;BME280;67878;46.242;5.974;2024-01-10T05:37:36;95771.91;;;18.52;39.32
78582;BME280;67878;46.242;5.974;2024-01-10T05:40:02;95775.22;;;18.54;39.50
78582;BME280;67878;46.242;5.974;2024-01-10T05:42:29;95779.63;;;18.53;39.67
78582;BME280;67878;46.242;5.974;2024-01-10T05:44:55;95784.69;;;18.55;39.36
78582;BME280;67878;46.242;5.974;2024-01-10T05:47:20;95780.44;;;18.54;39.30
78582;BME280;67878;46.242;5.974;2024-01-10T05:49:46;95771.63;;;18.55;39.50
78582;BME280;67878;46.242;5.974;2024-01-10T05:52:11;95775.91;;;18.56;39.56
78582;BME280;67878;46.242;5.974;2024-01-10T05:54:37;95770.78;;;18.54;39.51
78582;BME280;67878;46.242;5.974;2024-01-10T05:57:02;95768.19;;;18.54;39.26
78582;BME280;67878;46.242;5.974;2024-01-10T05:59:28;95771.63;;;18.55;39.33
78582;BME280;67878;46.242;5.974;2024-01-10T06:01:56;95782.88;;;18.55;39.58
78582;BME280;67878;46.242;5.974;2024-01-10T06:04:21;95785.38;;;18.57;39.33
78582;BME280;67878;46.242;5.974;2024-01-10T06:06:47;95788.97;;;18.56;39.31
78582;BME280;67878;46.242;5.974;2024-01-10T06:09:12;95784.56;;;18.56;38.99
78582;BME280;67878;46.242;5.974;2024-01-10T06:11:43;95771.78;;;18.53;39.55
78582;BME280;67878;46.242;5.974;2024-01-10T06:14:09;95787.00;;;18.58;39.35
78582;BME280;67878;46.242;5.974;2024-01-10T06:16:34;95788.69;;;18.59;39.16
78582;BME280;67878;46.242;5.974;2024-01-10T06:19:00;95785.38;;;18.57;39.46
78582;BME280;67878;46.242;5.974;2024-01-10T06:21:26;95783.44;;;18.59;39.22
78582;BME280;67878;46.242;5.974;2024-01-10T06:23:51;95785.09;;;18.60;39.30
78582;BME280;67878;46.242;5.974;2024-01-10T06:26:16;95786.88;;;18.59;39.12
78582;BME280;67878;46.242;5.974;2024-01-10T06:28:42;95782.34;;;18.62;39.23
78582;BME280;67878;46.242;5.974;2024-01-10T06:31:08;95779.84;;;18.60;39.18
78582;BME280;67878;46.242;5.974;2024-01-10T06:33:33;95782.34;;;18.62;39.03
78582;BME280;67878;46.242;5.974;2024-01-10T06:35:58;95778.06;;;18.60;38.86
78582;BME280;67878;46.242;5.974;2024-01-10T06:38:24;95779.72;;;18.62;39.06
78582;BME280;67878;46.242;5.974;2024-01-10T06:40:49;95780.53;;;18.62;39.03
78582;BME280;67878;46.242;5.974;2024-01-10T06:43:15;95788.22;;;18.64;39.14
78582;BME280;67878;46.242;5.974;2024-01-10T06:45:41;95789.88;;;18.65;38.85
78582;BME280;67878;46.242;5.974;2024-01-10T06:48:07;95789.06;;;18.64;38.68
78582;BME280;67878;46.242;5.974;2024-01-10T06:50:33;95785.59;;;18.64;38.75
78582;BME280;67878;46.242;5.974;2024-01-10T06:52:59;95788.91;;;18.66;38.90
78582;BME280;67878;46.242;5.974;2024-01-10T06:55:24;95788.91;;;18.66;38.87
78582;BME280;67878;46.242;5.974;2024-01-10T06:57:51;95787.94;;;18.67;38.73
78582;BME280;67878;46.242;5.974;2024-01-10T07:00:19;95773.09;;;18.67;39.51
78582;BME280;67878;46.242;5.974;2024-01-10T07:02:46;95771.28;;;18.68;39.51
78582;BME280;67878;46.242;5.974;2024-01-10T07:05:11;95770.16;;;18.70;39.29
78582;BME280;67878;46.242;5.974;2024-01-10T07:07:37;95764.78;;;18.72;40.18
78582;BME280;67878;46.242;5.974;2024-01-10T07:10:03;95762.03;;;18.73;39.94
78582;BME280;67878;46.242;5.974;2024-01-10T07:12:33;95765.59;;;18.72;40.07
78582;BME280;67878;46.242;5.974;2024-01-10T07:14:58;95767.56;;;18.70;40.01
78582;BME280;67878;46.242;5.974;2024-01-10T07:17:24;95776.06;;;18.72;40.17
78582;BME280;67878;46.242;5.974;2024-01-10T07:19:49;95781.19;;;18.74;41.04
78582;BME280;67878;46.242;5.974;2024-01-10T07:22:15;95788.06;;;18.75;41.29
78582;BME280;67878;46.242;5.974;2024-01-10T07:24:41;95793.16;;;18.76;41.54
78582;BME280;67878;46.242;5.974;2024-01-10T07:27:06;95796.47;;;18.78;41.54
78582;BME280;67878;46.242;5.974;2024-01-10T07:29:34;95795.47;;;18.79;41.50
78582;BME280;67878;46.242;5.974;2024-01-10T07:31:59;95797.28;;;18.79;41.50
78582;BME280;67878;46.242;5.974;2024-01-10T07:34:24;95808.56;;;18.79;41.29
78582;BME280;67878;46.242;5.974;2024-01-10T07:36:50;95812.81;;;18.80;41.44
78582;BME280;67878;46.242;5.974;2024-01-10T07:39:15;95822.47;;;18.80;41.31
78582;BME280;67878;46.242;5.974;2024-01-10T07:41:43;95818.91;;;18.81;41.40
78582;BME280;67878;46.242;5.974;2024-01-10T07:44:09;95823.28;;;18.80;41.51
78582;BME280;67878;46.242;5.974;2024-01-10T07:46:35;95837.06;;;18.83;41.43
78582;BME280;67878;46.242;5.974;2024-01-10T07:49:02;95835.56;;;18.80;40.97
78582;BME280;67878;46.242;5.974;2024-01-10T07:51:29;95828.53;;;18.80;40.70
78582;BME280;67878;46.242;5.974;2024-01-10T07:53:55;95819.56;;;18.83;40.46
78582;BME280;67878;46.242;5.974;2024-01-10T07:56:20;95809.91;;;18.84;40.28
78582;BME280;67878;46.242;5.974;2024-01-10T07:58:46;95819.25;;;18.86;40.19
78582;BME280;67878;46.242;5.974;2024-01-10T08:01:11;95816.66;;;18.86;40.33
78582;BME280;67878;46.242;5.974;2024-01-10T08:03:36;95814.72;;;18.88;40.19
78582;BME280;67878;46.242;5.974;2024-01-10T08:06:02;95814.72;;;18.88;40.80
78582;BME280;67878;46.242;5.974;2024-01-10T08:08:28;95819.66;;;18.91;40.80
78582;BME280;67878;46.242;5.974;2024-01-10T08:10:54;95821.59;;;18.89;40.62
78582;BME280;67878;46.242;5.974;2024-01-10T08:13:19;95818.97;;;18.89;40.31
78582;BME280;67878;46.242;5.974;2024-01-10T08:15:44;95822.56;;;18.88;40.03
78582;BME280;67878;46.242;5.974;2024-01-10T08:18:10;95827.81;;;18.88;39.87
78582;BME280;67878;46.242;5.974;2024-01-10T08:20:35;95834.00;;;18.87;39.75
78582;BME280;67878;46.242;5.974;2024-01-10T08:23:01;95834.00;;;18.87;39.60
78582;BME280;67878;46.242;5.974;2024-01-10T08:25:26;95850.53;;;18.88;39.31
78582;BME280;67878;46.242;5.974;2024-01-10T08:27:52;95847.22;;;18.86;39.52
78582;BME280;67878;46.242;5.974;2024-01-10T08:30:22;95850.53;;;18.88;39.99
78582;BME280;67878;46.242;5.974;2024-01-10T08:32:47;95858.22;;;18.89;40.22
78582;BME280;67878;46.242;5.974;2024-01-10T08:35:13;95852.03;;;18.90;40.56
78582;BME280;67878;46.242;5.974;2024-01-10T08:37:39;95848.72;;;18.98;40.07
78582;BME280;67878;46.242;5.974;2024-01-10T08:40:12;95838.88;;;19.00;39.30
78582;BME280;67878;46.242;5.974;2024-01-10T08:42:43;95836.13;;;19.01;39.29
78582;BME280;67878;46.242;5.974;2024-01-10T08:45:09;95830.91;;;19.01;39.25
78582;BME280;67878;46.242;5.974;2024-01-10T08:47:36;95826.50;;;19.02;39.14
78582;BME280;67878;46.242;5.974;2024-01-10T08:50:03;95825.97;;;18.98;38.54
78582;BME280;67878;46.242;5.974;2024-01-10T08:52:31;95837.78;;;19.02;38.75
78582;BME280;67878;46.242;5.974;2024-01-10T08:54:57;95838.06;;;18.99;38.55
78582;BME280;67878;46.242;5.974;2024-01-10T08:57:23;95836.97;;;19.02;38.41
78582;BME280;67878;46.242;5.974;2024-01-10T08:59:52;95836.28;;;19.00;38.44
78582;BME280;67878;46.242;5.974;2024-01-10T09:02:17;95853.47;;;19.02;38.35
78582;BME280;67878;46.242;5.974;2024-01-10T09:04:43;95859.69;;;19.01;38.24
78582;BME280;67878;46.242;5.974;2024-01-10T09:07:08;95867.69;;;19.00;38.29
78582;BME280;67878;46.242;5.974;2024-01-10T09:09:34;95866.88;;;18.99;38.14
78582;BME280;67878;46.242;5.974;2024-01-10T09:12:00;95868.50;;;19.00;38.08
78582;BME280;67878;46.242;5.974;2024-01-10T09:14:25;95867.69;;;19.00;38.15
78582;BME280;67878;46.242;5.974;2024-01-10T09:16:51;95871.28;;;18.99;38.16
78582;BME280;67878;46.242;5.974;2024-01-10T09:19:17;95867.84;;;18.98;38.03
78582;BME280;67878;46.242;5.974;2024-01-10T09:21:43;95873.91;;;18.99;38.00
78582;BME280;67878;46.242;5.974;2024-01-10T09:24:08;95873.09;;;18.98;37.98
78582;BME280;67878;46.242;5.974;2024-01-10T09:26:36;95878.31;;;18.98;37.91
78582;BME280;67878;46.242;5.974;2024-01-10T09:29:01;95886.16;;;18.98;38.06
78582;BME280;67878;46.242;5.974;2024-01-10T09:31:27;95883.00;;;18.95;37.97
78582;BME280;67878;46.242;5.974;2024-01-10T09:33:52;95872.19;;;18.80;37.89
78582;BME280;67878;46.242;5.974;2024-01-10T09:36:18;95899.84;;;18.92;37.69
78582;BME280;67878;46.242;5.974;2024-01-10T09:38:43;95901.31;;;18.95;37.80
78582;BME280;67878;46.242;5.974;2024-01-10T09:41:11;95910.31;;;18.92;37.94
78582;BME280;67878;46.242;5.974;2024-01-10T09:43:37;95907.41;;;18.95;37.80
78582;BME280;67878;46.242;5.974;2024-01-10T09:46:03;95903.13;;;18.94;37.99
78582;BME280;67878;46.242;5.974;2024-01-10T09:48:30;95903.94;;;18.95;38.24
78582;BME280;67878;46.242;5.974;2024-01-10T09:50:56;95903.13;;;18.94;38.14
78582;BME280;67878;46.242;5.974;2024-01-10T09:53:22;95904.09;;;18.93;38.04
78582;BME280;67878;46.242;5.974;2024-01-10T09:55:56;95901.31;;;18.95;37.94
78582;BME280;67878;46.242;5.974;2024-01-10T09:58:24;95910.00;;;18.95;37.73
78582;BME280;67878;46.242;5.974;2024-01-10T10:00:50;95910.84;;;18.96;38.11
78582;BME280;67878;46.242;5.974;2024-01-10T10:03:17;95910.84;;;18.96;38.12
78582;BME280;67878;46.242;5.974;2024-01-10T10:05:43;95904.78;;;18.95;38.35
78582;BME280;67878;46.242;5.974;2024-01-10T10:08:14;95912.34;;;18.98;38.38
78582;BME280;67878;46.242;5.974;2024-01-10T10:10:49;95909.56;;;19.00;38.45
78582;BME280;67878;46.242;5.974;2024-01-10T10:13:28;95903.38;;;19.01;38.03
78582;BME280;67878;46.242;5.974;2024-01-10T10:16:01;95909.28;;;19.03;38.05
78582;BME280;67878;46.242;5.974;2024-01-10T10:18:27;95904.88;;;19.03;38.50
78582;BME280;67878;46.242;5.974;2024-01-10T10:21:10;95902.91;;;19.06;38.13
78582;BME280;67878;46.242;5.974;2024-01-10T10:23:37;95901.97;;;19.07;38.51
78582;BME280;67878;46.242;5.974;2024-01-10T10:26:14;95901.13;;;19.06;39.61
78582;BME280;67878;46.242;5.974;2024-01-10T10:28:45;95900.88;;;19.09;39.13
78582;BME280;67878;46.242;5.974;2024-01-10T10:31:11;95899.72;;;19.12;39.28
78582;BME280;67878;46.242;5.974;2024-01-10T10:33:37;95885.69;;;19.13;39.40
78582;BME280;67878;46.242;5.974;2024-01-10T10:36:03;95888.00;;;19.16;39.54
78582;BME280;67878;46.242;5.974;2024-01-10T10:38:29;95879.16;;;19.17;39.34
78582;BME280;67878;46.242;5.974;2024-01-10T10:40:55;95871.19;;;19.18;39.20
78582;BME280;67878;46.242;5.974;2024-01-10T10:43:22;95869.38;;;19.19;39.38
78582;BME280;67878;46.242;5.974;2024-01-10T10:45:49;95861.41;;;19.20;39.38
78582;BME280;67878;46.242;5.974;2024-01-10T10:48:19;95863.03;;;19.21;39.34
78582;BME280;67878;46.242;5.974;2024-01-10T10:51:00;95853.38;;;19.22;39.21
78582;BME280;67878;46.242;5.974;2024-01-10T10:53:29;95862.03;;;19.22;39.49
78582;BME280;67878;46.242;5.974;2024-01-10T10:55:57;95859.44;;;19.22;39.07
78582;BME280;67878;46.242;5.974;2024-01-10T10:58:24;95865.66;;;19.21;39.33
78582;BME280;67878;46.242;5.974;2024-01-10T11:00:50;95864.16;;;19.19;39.16
78582;BME280;67878;46.242;5.974;2024-01-10T11:03:16;95872.53;;;19.22;39.15
78582;BME280;67878;46.242;5.974;2024-01-10T11:05:42;95865.66;;;19.21;39.29
78582;BME280;67878;46.242;5.974;2024-01-10T11:08:13;95856.16;;;19.20;39.00
78582;BME280;67878;46.242;5.974;2024-01-10T11:10:41;95852.56;;;19.21;39.56
78582;BME280;67878;46.242;5.974;2024-01-10T11:18:33;95843.88;;;19.21;39.25
78582;BME280;67878;46.242;5.974;2024-01-10T11:21:06;95853.53;;;19.20;39.45
78582;BME280;67878;46.242;5.974;2024-01-10T11:23:44;95859.72;;;19.19;38.92
78582;BME280;67878;46.242;5.974;2024-01-10T11:26:13;95874.63;;;19.19;39.30
78582;BME280;67878;46.242;5.974;2024-01-10T11:28:46;95867.88;;;19.16;39.58
78582;BME280;67878;46.242;5.974;2024-01-10T11:31:13;95866.06;;;19.17;39.58
78582;BME280;67878;46.242;5.974;2024-01-10T11:33:40;95848.72;;;19.16;39.63
78582;BME280;67878;46.242;5.974;2024-01-10T11:36:09;95845.81;;;19.19;39.92
78582;BME280;67878;46.242;5.974;2024-01-10T11:41:20;95851.19;;;19.17;38.96
78582;BME280;67878;46.242;5.974;2024-01-10T11:43:46;95837.16;;;19.18;39.23
78582;BME280;67878;46.242;5.974;2024-01-10T11:46:32;95843.50;;;19.16;39.09
78582;BME280;67878;46.242;5.974;2024-01-10T11:48:58;95844.31;;;19.16;39.20
78582;BME280;67878;46.242;5.974;2024-01-10T11:51:25;95846.25;;;19.14;39.62
78582;BME280;67878;46.242;5.974;2024-01-10T11:53:51;95840.06;;;19.15;39.41
78582;BME280;67878;46.242;5.974;2024-01-10T11:56:18;95834.81;;;19.15;39.33
78582;BME280;67878;46.242;5.974;2024-01-10T11:59:03;95832.19;;;19.15;39.22
78582;BME280;67878;46.242;5.974;2024-01-10T12:01:29;95833.16;;;19.14;39.27
78582;BME280;67878;46.242;5.974;2024-01-10T12:03:55;95830.53;;;19.14;39.29
78582;BME280;67878;46.242;5.974;2024-01-10T12:06:23;95834.81;;;19.15;39.51
78582;BME280;67878;46.242;5.974;2024-01-10T12:08:50;95837.44;;;19.15;39.31
78582;BME280;67878;46.242;5.974;2024-01-10T12:11:16;95839.25;;;19.15;39.23
78582;BME280;67878;46.242;5.974;2024-01-10T12:13:43;95838.38;;;19.14;39.24
78582;BME280;67878;46.242;5.974;2024-01-10T12:16:08;95843.50;;;19.16;39.08
78582;BME280;67878;46.242;5.974;2024-01-10T12:18:33;95846.25;;;19.14;39.03
78582;BME280;67878;46.242;5.974;2024-01-10T12:20:59;95844.59;;;19.13;39.40
78582;BME280;67878;46.242;5.974;2024-01-10T12:23:25;95838.38;;;19.14;39.15
78582;BME280;67878;46.242;5.974;2024-01-10T12:25:56;95847.09;;;19.15;39.35
78582;BME280;67878;46.242;5.974;2024-01-10T12:28:21;95837.72;;;19.12;39.29
78582;BME280;67878;46.242;5.974;2024-01-10T12:30:47;95829.19;;;19.10;39.35
78582;BME280;67878;46.242;5.974;2024-01-10T12:33:12;95837.56;;;19.14;39.14
78582;BME280;67878;46.242;5.974;2024-01-10T12:35:38;95831.53;;;19.13;39.43
78582;BME280;67878;46.242;5.974;2024-01-10T12:38:10;95823.78;;;19.12;39.49
78582;BME280;67878;46.242;5.974;2024-01-10T12:40:36;95826.41;;;19.12;39.32
78582;BME280;67878;46.242;5.974;2024-01-10T12:43:05;95818.56;;;19.12;39.68
78582;BME280;67878;46.242;5.974;2024-01-10T12:45:31;95817.91;;;19.10;39.68
78582;BME280;67878;46.242;5.974;2024-01-10T12:47:57;95821.19;;;19.12;39.70
78582;BME280;67878;46.242;5.974;2024-01-10T12:50:23;95815.94;;;19.12;39.57
78582;BME280;67878;46.242;5.974;2024-01-10T12:52:50;95813.31;;;19.12;39.37
78582;BME280;67878;46.242;5.974;2024-01-10T12:55:15;95815.94;;;19.12;39.41
78582;BME280;67878;46.242;5.974;2024-01-10T12:57:43;95808.09;;;19.12;39.46
78582;BME280;67878;46.242;5.974;2024-01-10T13:00:09;95807.97;;;19.13;39.39
78582;BME280;67878;46.242;5.974;2024-01-10T13:02:36;95807.66;;;19.16;39.86
78582;BME280;67878;46.242;5.974;2024-01-10T13:05:05;95809.03;;;19.20;40.20